Time;durP1;ratioP1;P1;durP2;ratioP2;P2;SDS_P1;SDS_P2;PMS_P1;PMS_P2;Temp;Humidity;BMP_temperature;BMP_pressure;BME280_temperature;BME280_humidity;BME280_pressure;Samples;Min_cycle;Max_cycle;Signal;HPM_P1;HPM_P2
2023/05/21 00:01:04;;;;;;;24.20;15.50;;;;;;;;;;4959303;29;20819;-73
2023/05/21 00:03:31;;;;;;;19.40;14.20;;;;;;;;;;4958339;29;20478;-73
2023/05/21 00:05:57;;;;;;;16.23;12.70;;;;;;;;;;4958695;29;20413;-73
2023/05/21 00:08:23;;;;;;;16.60;12.80;;;;;;;;;;4958074;29;20408;-76
2023/05/21 00:10:49;;;;;;;17.60;12.53;;;;;;;;;;4958332;28;20424;-73
2023/05/21 00:13:15;;;;;;;16.33;11.63;;;;;;;;;;4959007;29;20383;-73
2023/05/21 00:15:41;;;;;;;17.43;13.07;;;;;;;;;;4958391;29;20905;-73
2023/05/21 00:18:07;;;;;;;16.27;12.90;;;;;;;;;;4958776;29;20732;-73
2023/05/21 00:20:33;;;;;;;15.13;12.27;;;;;;;;;;4958376;29;20495;-73
2023/05/21 00:23:03;;;;;;;16.97;12.80;;;;;;;;;;4958300;29;20464;-73
2023/05/21 00:25:29;;;;;;;16.47;12.07;;;;;;;;;;4958644;29;20416;-73
2023/05/21 00:27:55;;;;;;;17.20;12.73;;;;;;;;;;4958445;29;20802;-73
2023/05/21 00:30:21;;;;;;;16.77;12.13;;;;;;;;;;4958731;29;20412;-73
2023/05/21 00:32:47;;;;;;;14.83;12.37;;;;;;;;;;4958662;29;20395;-73
2023/05/21 00:35:13;;;;;;;17.53;13.27;;;;;;;;;;4958549;29;20412;-73
2023/05/21 00:37:40;;;;;;;19.70;12.83;;;;;;;;;;4958383;29;20417;-73
2023/05/21 00:40:07;;;;;;;17.33;13.00;;;;;;;;;;4958217;29;20454;-73
2023/05/21 00:42:38;;;;;;;16.13;12.90;;;;;;;;;;4958763;29;20408;-73
2023/05/21 00:45:04;;;;;;;16.90;12.63;;;;;;;;;;4958449;29;20486;-73
2023/05/21 00:47:30;;;;;;;14.90;11.93;;;;;;;;;;4958501;29;20507;-73
2023/05/21 00:49:56;;;;;;;20.23;13.03;;;;;;;;;;4958227;29;20395;-73
2023/05/21 00:52:25;;;;;;;17.47;12.10;;;;;;;;;;4958493;29;20408;-73
2023/05/21 00:54:51;;;;;;;17.67;12.40;;;;;;;;;;4958507;29;20480;-73
2023/05/21 00:57:21;;;;;;;17.23;12.43;;;;;;;;;;4958920;29;20383;-73
2023/05/21 00:59:49;;;;;;;16.53;12.60;;;;;;;;;;4958298;29;20417;-73
2023/05/21 01:02:17;;;;;;;17.23;12.80;;;;;;;;;;4958384;29;20394;-74
2023/05/21 01:04:43;;;;;;;18.23;12.60;;;;;;;;;;4957784;29;20476;-73
2023/05/21 01:07:09;;;;;;;14.77;12.50;;;;;;;;;;4958212;29;20440;-73
2023/05/21 01:09:36;;;;;;;18.40;12.50;;;;;;;;;;4958047;29;20429;-73
2023/05/21 01:12:03;;;;;;;17.93;13.27;;;;;;;;;;4958143;29;20454;-73
2023/05/21 01:14:30;;;;;;;22.30;14.47;;;;;;;;;;4958289;29;20451;-73
2023/05/21 01:16:56;;;;;;;17.97;13.00;;;;;;;;;;4957654;29;20901;-73
2023/05/21 01:19:23;;;;;;;17.20;12.60;;;;;;;;;;4958197;29;20421;-73
2023/05/21 01:21:50;;;;;;;16.67;12.13;;;;;;;;;;4958881;28;20397;-73
2023/05/21 01:24:17;;;;;;;17.43;12.93;;;;;;;;;;4962605;29;20516;-73
2023/05/21 01:26:45;;;;;;;15.27;13.67;;;;;;;;;;4961766;29;20407;-73
2023/05/21 01:29:11;;;;;;;21.57;13.83;;;;;;;;;;4961604;29;20421;-73
2023/05/21 01:31:58;;;;;;;18.13;14.80;;;;;;;;;;4961526;29;21039;-73
2023/05/21 01:34:26;;;;;;;16.20;13.37;;;;;;;;;;4941616;29;20428;-72
2023/05/21 01:36:56;;;;;;;20.60;15.10;;;;;;;;;;4961808;29;20384;-72
2023/05/21 01:39:25;;;;;;;18.00;13.30;;;;;;;;;;4961949;29;20456;-73
2023/05/21 01:41:52;;;;;;;18.33;13.80;;;;;;;;;;4961276;29;20416;-73
2023/05/21 01:44:18;;;;;;;15.00;12.43;;;;;;;;;;4961444;29;20868;-73
2023/05/21 01:46:44;;;;;;;15.80;12.10;;;;;;;;;;4961234;29;20379;-72
2023/05/21 01:49:11;;;;;;;18.00;12.10;;;;;;;;;;4961404;29;20493;-72
2023/05/21 01:51:37;;;;;;;15.93;12.57;;;;;;;;;;4961525;29;20472;-72
2023/05/21 01:54:03;;;;;;;14.40;11.80;;;;;;;;;;4961298;29;20417;-73
2023/05/21 01:56:32;;;;;;;14.37;12.77;;;;;;;;;;4960993;29;20395;-75
2023/05/21 01:58:59;;;;;;;17.50;13.07;;;;;;;;;;4961508;29;20503;-72
2023/05/21 02:01:26;;;;;;;16.20;12.03;;;;;;;;;;4961531;29;20412;-73
2023/05/21 02:03:52;;;;;;;13.43;11.20;;;;;;;;;;4960507;29;21018;-73
2023/05/21 02:06:18;;;;;;;16.50;11.30;;;;;;;;;;4961534;29;20744;-73
2023/05/21 02:08:44;;;;;;;12.83;11.40;;;;;;;;;;4960452;29;20383;-73
2023/05/21 02:11:10;;;;;;;17.30;11.53;;;;;;;;;;4960860;29;20408;-73
2023/05/21 02:13:41;;;;;;;14.50;11.20;;;;;;;;;;4960796;29;20387;-73
2023/05/21 02:16:10;;;;;;;16.27;10.93;;;;;;;;;;4960647;29;20412;-72
2023/05/21 02:18:36;;;;;;;12.63;10.60;;;;;;;;;;4960327;29;20394;-73
2023/05/21 02:21:02;;;;;;;12.57;11.10;;;;;;;;;;4960464;29;20391;-73
2023/05/21 02:23:28;;;;;;;12.40;9.77;;;;;;;;;;4960858;29;20471;-73
2023/05/21 02:25:54;;;;;;;11.87;10.20;;;;;;;;;;4961019;29;20397;-72
2023/05/21 02:28:20;;;;;;;13.00;9.73;;;;;;;;;;4960526;29;20459;-72
2023/05/21 02:30:46;;;;;;;14.60;10.53;;;;;;;;;;4960481;29;20767;-72
2023/05/21 02:33:13;;;;;;;10.93;9.73;;;;;;;;;;4960478;28;20383;-72
2023/05/21 02:35:40;;;;;;;11.27;10.10;;;;;;;;;;4960751;29;20409;-72
2023/05/21 02:38:07;;;;;;;14.30;10.80;;;;;;;;;;4960881;29;20404;-73
2023/05/21 02:40:34;;;;;;;12.97;9.67;;;;;;;;;;4960458;29;20416;-74
2023/05/21 02:43:00;;;;;;;13.93;10.43;;;;;;;;;;4961020;29;20395;-73
2023/05/21 02:45:26;;;;;;;12.80;9.77;;;;;;;;;;4960519;29;20424;-73
2023/05/21 02:47:52;;;;;;;12.53;10.70;;;;;;;;;;4960585;29;20408;-73
2023/05/21 02:50:18;;;;;;;12.60;10.47;;;;;;;;;;4960373;29;20475;-72
2023/05/21 02:52:44;;;;;;;15.73;11.60;;;;;;;;;;4960708;29;20405;-73
2023/05/21 02:55:10;;;;;;;11.23;9.60;;;;;;;;;;4960897;29;20764;-72
2023/05/21 02:57:36;;;;;;;13.23;10.40;;;;;;;;;;4960077;29;20443;-72
2023/05/21 03:00:02;;;;;;;13.70;10.47;;;;;;;;;;4960461;29;20412;-72
2023/05/21 03:02:28;;;;;;;12.87;11.40;;;;;;;;;;4960413;29;20504;-72
2023/05/21 03:04:54;;;;;;;13.93;10.90;;;;;;;;;;4959994;29;20534;-72
2023/05/21 03:07:21;;;;;;;12.43;10.60;;;;;;;;;;4960414;29;20440;-72
2023/05/21 03:09:47;;;;;;;14.70;11.50;;;;;;;;;;4959914;29;20482;-72
2023/05/21 03:12:13;;;;;;;15.57;11.80;;;;;;;;;;4960057;29;20387;-72
2023/05/21 03:14:41;;;;;;;13.67;11.40;;;;;;;;;;4959634;29;20387;-72
2023/05/21 03:17:07;;;;;;;14.87;11.57;;;;;;;;;;4960107;29;20448;-72
2023/05/21 03:19:34;;;;;;;15.73;12.97;;;;;;;;;;4960054;29;20410;-72
2023/05/21 03:22:01;;;;;;;13.20;11.30;;;;;;;;;;4959924;29;20857;-72
2023/05/21 03:24:29;;;;;;;15.80;12.20;;;;;;;;;;4960152;29;20495;-72
2023/05/21 03:26:55;;;;;;;17.23;12.73;;;;;;;;;;4959992;29;20547;-72
2023/05/21 03:29:21;;;;;;;15.17;12.90;;;;;;;;;;4960318;29;20444;-72
2023/05/21 03:31:47;;;;;;;14.30;11.77;;;;;;;;;;4959849;29;20411;-72
2023/05/21 03:34:13;;;;;;;15.27;12.93;;;;;;;;;;4960302;29;20412;-72
2023/05/21 03:36:39;;;;;;;16.50;12.37;;;;;;;;;;4959441;29;20441;-72
2023/05/21 03:39:05;;;;;;;17.57;11.73;;;;;;;;;;4958833;29;20490;-73
2023/05/21 03:41:31;;;;;;;13.27;11.70;;;;;;;;;;4959242;29;20424;-72
2023/05/21 03:43:57;;;;;;;13.63;12.20;;;;;;;;;;4959252;28;20979;-72
2023/05/21 03:46:25;;;;;;;16.87;12.70;;;;;;;;;;4959331;29;20408;-73
2023/05/21 03:48:51;;;;;;;14.47;12.63;;;;;;;;;;4958729;29;20495;-73
2023/05/21 03:51:17;;;;;;;15.73;12.97;;;;;;;;;;4941124;29;20464;-73
2023/05/21 03:53:43;;;;;;;19.73;12.77;;;;;;;;;;4959276;29;20416;-73
2023/05/21 03:56:09;;;;;;;13.37;11.97;;;;;;;;;;4959176;29;20883;-73
2023/05/21 03:58:35;;;;;;;16.03;12.30;;;;;;;;;;4959410;29;20766;-73
2023/05/21 04:01:03;;;;;;;20.70;12.93;;;;;;;;;;4958962;29;20817;-73
2023/05/21 04:03:31;;;;;;;21.13;14.33;;;;;;;;;;4958694;29;20465;-73
2023/05/21 04:05:57;;;;;;;18.40;13.57;;;;;;;;;;4959055;29;20821;-73
2023/05/21 04:08:23;;;;;;;14.40;12.23;;;;;;;;;;4959304;29;20753;-72
2023/05/21 04:10:49;;;;;;;15.03;12.27;;;;;;;;;;4958956;29;20507;-73
2023/05/21 04:13:15;;;;;;;16.57;12.47;;;;;;;;;;4959093;29;20486;-73
2023/05/21 04:15:43;;;;;;;15.17;11.87;;;;;;;;;;4959046;29;20958;-73
2023/05/21 04:18:09;;;;;;;19.30;13.00;;;;;;;;;;4959137;29;20826;-73
2023/05/21 04:20:35;;;;;;;18.57;14.67;;;;;;;;;;4959323;29;20449;-73
2023/05/21 04:23:02;;;;;;;14.67;12.60;;;;;;;;;;4959130;29;20383;-73
2023/05/21 04:25:28;;;;;;;16.20;11.97;;;;;;;;;;4958858;29;20853;-73
2023/05/21 04:27:54;;;;;;;15.37;12.23;;;;;;;;;;4959330;29;20409;-72
2023/05/21 04:30:20;;;;;;;14.07;11.90;;;;;;;;;;4958808;29;20425;-73
2023/05/21 04:32:46;;;;;;;14.37;12.00;;;;;;;;;;4958315;29;20415;-73
2023/05/21 04:35:14;;;;;;;14.40;12.00;;;;;;;;;;4959476;29;20413;-73
2023/05/21 04:37:44;;;;;;;15.27;12.23;;;;;;;;;;4958789;29;20463;-74
2023/05/21 04:40:11;;;;;;;14.40;11.97;;;;;;;;;;4959322;29;20413;-73
2023/05/21 04:42:37;;;;;;;15.23;11.93;;;;;;;;;;4958369;29;20413;-73
2023/05/21 04:45:04;;;;;;;15.77;11.77;;;;;;;;;;4958058;29;20507;-73
2023/05/21 04:47:34;;;;;;;12.57;10.93;;;;;;;;;;4959142;29;20409;-73
2023/05/21 04:50:00;;;;;;;14.70;11.73;;;;;;;;;;4958589;29;20428;-73
2023/05/21 04:52:26;;;;;;;12.77;11.47;;;;;;;;;;4959076;29;20412;-73
2023/05/21 04:54:53;;;;;;;15.37;11.37;;;;;;;;;;4941250;29;20420;-73
2023/05/21 04:57:19;;;;;;;12.80;10.27;;;;;;;;;;4960514;28;20424;-73
2023/05/21 04:59:45;;;;;;;14.90;11.23;;;;;;;;;;4962764;29;20464;-73
2023/05/21 05:02:11;;;;;;;12.50;10.73;;;;;;;;;;4962245;29;20386;-73
2023/05/21 05:04:37;;;;;;;15.03;10.60;;;;;;;;;;4962629;29;20438;-74
2023/05/21 05:07:04;;;;;;;17.87;11.60;;;;;;;;;;4962303;29;20401;-74
2023/05/21 05:09:30;;;;;;;16.70;10.97;;;;;;;;;;4962269;29;20413;-74
2023/05/21 05:11:56;;;;;;;15.07;11.90;;;;;;;;;;4944659;29;20424;-74
2023/05/21 05:14:22;;;;;;;14.40;11.93;;;;;;;;;;4961997;29;20455;-74
2023/05/21 05:16:48;;;;;;;11.47;10.30;;;;;;;;;;4962540;29;20419;-74
2023/05/21 05:19:14;;;;;;;13.10;11.40;;;;;;;;;;4962403;29;20432;-74
2023/05/21 05:21:40;;;;;;;17.17;11.60;;;;;;;;;;4962140;29;20428;-74
2023/05/21 05:24:06;;;;;;;14.03;11.30;;;;;;;;;;4962035;29;20831;-74
2023/05/21 05:26:32;;;;;;;15.63;12.00;;;;;;;;;;4962022;29;20415;-74
2023/05/21 05:28:58;;;;;;;13.13;10.97;;;;;;;;;;4961616;29;20419;-74
2023/05/21 05:31:25;;;;;;;13.53;10.53;;;;;;;;;;4962409;29;20887;-74
2023/05/21 05:33:51;;;;;;;14.13;10.70;;;;;;;;;;4961801;29;20862;-74
2023/05/21 05:36:17;;;;;;;13.00;11.20;;;;;;;;;;4962038;29;20412;-74
2023/05/21 05:38:43;;;;;;;12.37;10.43;;;;;;;;;;4961632;29;20416;-77
2023/05/21 05:41:09;;;;;;;11.57;10.37;;;;;;;;;;4961689;29;20405;-74
2023/05/21 05:43:35;;;;;;;12.47;9.57;;;;;;;;;;4961636;29;20929;-74
2023/05/21 05:46:01;;;;;;;13.20;10.70;;;;;;;;;;4961501;29;20423;-74
2023/05/21 05:48:27;;;;;;;12.57;11.20;;;;;;;;;;4961414;29;20413;-74
2023/05/21 05:50:54;;;;;;;11.23;9.87;;;;;;;;;;4961095;29;20460;-72
2023/05/21 05:53:20;;;;;;;13.30;11.47;;;;;;;;;;4961604;29;20424;-73
2023/05/21 05:55:46;;;;;;;12.37;10.20;;;;;;;;;;4961697;29;20420;-73
2023/05/21 05:58:12;;;;;;;15.37;10.93;;;;;;;;;;4961426;29;20801;-72
2023/05/21 06:00:38;;;;;;;12.13;10.00;;;;;;;;;;4961318;29;20409;-73
2023/05/21 06:03:04;;;;;;;11.73;10.20;;;;;;;;;;4961224;29;20390;-72
2023/05/21 06:05:30;;;;;;;11.77;10.53;;;;;;;;;;4961137;29;20480;-73
2023/05/21 06:07:56;;;;;;;12.77;10.27;;;;;;;;;;4960305;28;20391;-74
2023/05/21 06:10:22;;;;;;;9.23;8.20;;;;;;;;;;4961045;29;20889;-72
2023/05/21 06:12:48;;;;;;;10.00;8.93;;;;;;;;;;4961205;29;20390;-73
2023/05/21 06:15:15;;;;;;;14.03;9.70;;;;;;;;;;4960799;29;20380;-72
2023/05/21 06:17:41;;;;;;;11.43;10.30;;;;;;;;;;4961224;29;20784;-74
2023/05/21 06:20:11;;;;;;;11.20;9.73;;;;;;;;;;4961334;29;20433;-74
2023/05/21 06:22:37;;;;;;;13.37;10.17;;;;;;;;;;4960582;29;20390;-74
2023/05/21 06:25:03;;;;;;;12.70;10.13;;;;;;;;;;4960600;29;20874;-74
2023/05/21 06:27:29;;;;;;;10.30;9.27;;;;;;;;;;4960739;29;20403;-74
2023/05/21 06:29:56;;;;;;;16.53;9.27;;;;;;;;;;4960679;29;20399;-75
2023/05/21 06:32:22;;;;;;;12.83;9.77;;;;;;;;;;4961325;29;20412;-74
2023/05/21 06:34:48;;;;;;;10.87;9.40;;;;;;;;;;4960807;29;20776;-75
2023/05/21 06:37:14;;;;;;;13.07;9.90;;;;;;;;;;4960660;29;20499;-74
2023/05/21 06:39:40;;;;;;;11.07;9.87;;;;;;;;;;4960675;29;20387;-74
2023/05/21 06:42:06;;;;;;;11.60;9.70;;;;;;;;;;4960701;29;20472;-74
2023/05/21 06:44:32;;;;;;;12.20;10.23;;;;;;;;;;4961243;29;20443;-74
2023/05/21 06:46:58;;;;;;;11.50;10.20;;;;;;;;;;4960211;29;20872;-74
2023/05/21 06:49:25;;;;;;;14.50;11.00;;;;;;;;;;4960644;29;20399;-74
2023/05/21 06:51:51;;;;;;;12.80;10.80;;;;;;;;;;4960101;29;20517;-75
2023/05/21 06:54:17;;;;;;;13.50;9.73;;;;;;;;;;4960495;29;20755;-74
2023/05/21 06:56:43;;;;;;;14.07;11.70;;;;;;;;;;4960183;29;20502;-74
2023/05/21 06:59:09;;;;;;;13.33;11.60;;;;;;;;;;4960197;29;20392;-75
2023/05/21 07:01:35;;;;;;;12.13;9.87;;;;;;;;;;4959917;29;20459;-74
2023/05/21 07:04:01;;;;;;;12.73;10.50;;;;;;;;;;4960098;29;20814;-75
2023/05/21 07:06:27;;;;;;;14.07;10.10;;;;;;;;;;4960243;29;20917;-74
2023/05/21 07:08:53;;;;;;;10.17;9.17;;;;;;;;;;4959616;29;20439;-75
2023/05/21 07:11:20;;;;;;;11.53;9.80;;;;;;;;;;4959903;29;20480;-74
2023/05/21 07:13:46;;;;;;;12.53;9.40;;;;;;;;;;4959911;29;20399;-75
2023/05/21 07:16:12;;;;;;;13.17;10.03;;;;;;;;;;4959711;29;20887;-75
2023/05/21 07:18:38;;;;;;;11.67;10.47;;;;;;;;;;4959524;28;20398;-75
2023/05/21 07:21:04;;;;;;;12.33;9.67;;;;;;;;;;4958635;29;20921;-75
2023/05/21 07:23:30;;;;;;;11.00;9.90;;;;;;;;;;4959448;29;20482;-75
2023/05/21 07:25:56;;;;;;;11.43;10.30;;;;;;;;;;4959123;29;20409;-75
2023/05/21 07:28:22;;;;;;;11.27;9.50;;;;;;;;;;4959203;29;20383;-74
2023/05/21 07:30:48;;;;;;;11.47;10.27;;;;;;;;;;4958489;29;20405;-75
2023/05/21 07:33:15;;;;;;;11.87;9.70;;;;;;;;;;4959497;29;20822;-74
2023/05/21 07:35:41;;;;;;;11.37;9.77;;;;;;;;;;4959608;29;20395;-74
2023/05/21 07:38:07;;;;;;;13.07;10.87;;;;;;;;;;4959102;29;20405;-75
2023/05/21 07:40:33;;;;;;;10.87;9.30;;;;;;;;;;4959740;29;20416;-74
2023/05/21 07:42:59;;;;;;;9.90;8.83;;;;;;;;;;4959641;29;20933;-75
2023/05/21 07:45:25;;;;;;;11.50;10.30;;;;;;;;;;4959642;29;20894;-74
2023/05/21 07:47:51;;;;;;;11.50;10.20;;;;;;;;;;4958902;29;20391;-76
2023/05/21 07:50:17;;;;;;;10.77;9.77;;;;;;;;;;4958768;29;20522;-74
2023/05/21 07:52:43;;;;;;;11.80;9.87;;;;;;;;;;4959366;29;20394;-75
2023/05/21 07:55:09;;;;;;;11.40;10.27;;;;;;;;;;4959011;29;20425;-75
2023/05/21 07:57:35;;;;;;;12.07;10.87;;;;;;;;;;4959262;29;20926;-75
2023/05/21 08:00:01;;;;;;;13.20;11.20;;;;;;;;;;4958772;29;20424;-75
2023/05/21 08:02:27;;;;;;;11.23;10.00;;;;;;;;;;4958851;29;20416;-74
2023/05/21 08:04:53;;;;;;;11.80;10.40;;;;;;;;;;4958556;29;20471;-73
2023/05/21 08:07:20;;;;;;;13.63;10.50;;;;;;;;;;4958734;29;20514;-73
2023/05/21 08:09:46;;;;;;;10.67;9.67;;;;;;;;;;4959130;29;20398;-75
2023/05/21 08:12:14;;;;;;;15.03;9.60;;;;;;;;;;4958702;29;20396;-74
2023/05/21 08:14:40;;;;;;;11.90;10.67;;;;;;;;;;4958992;29;20431;-74
2023/05/21 08:17:08;;;;;;;10.50;9.50;;;;;;;;;;4958494;29;20747;-75
2023/05/21 08:19:34;;;;;;;12.37;9.80;;;;;;;;;;4958368;29;20402;-86
2023/05/21 08:22:00;;;;;;;13.70;9.60;;;;;;;;;;4955241;29;20405;-86
2023/05/21 08:24:26;;;;;;;11.27;9.63;;;;;;;;;;4955729;29;20472;-87
2023/05/21 08:26:52;;;;;;;10.97;9.67;;;;;;;;;;4938645;29;20424;-86
2023/05/21 08:29:18;;;;;;;11.83;9.70;;;;;;;;;;4956023;29;20409;-86
2023/05/21 08:31:45;;;;;;;11.60;9.70;;;;;;;;;;4955272;28;20383;-81
2023/05/21 08:34:11;;;;;;;10.07;9.07;;;;;;;;;;4957251;29;20417;-74
2023/05/21 08:36:37;;;;;;;11.40;10.30;;;;;;;;;;4957556;29;20412;-74
2023/05/21 08:39:03;;;;;;;11.50;10.30;;;;;;;;;;4958012;29;20511;-72
2023/05/21 08:41:30;;;;;;;12.70;10.07;;;;;;;;;;4958405;29;20415;-72
2023/05/21 08:43:56;;;;;;;11.50;10.20;;;;;;;;;;4957605;29;20925;-73
2023/05/21 08:46:23;;;;;;;10.30;9.30;;;;;;;;;;4957422;29;20416;-72
2023/05/21 08:48:53;;;;;;;12.33;10.00;;;;;;;;;;4957428;29;20407;-72
2023/05/21 08:51:20;;;;;;;11.07;10.00;;;;;;;;;;4957441;29;20548;-73
2023/05/21 08:53:49;;;;;;;15.53;10.27;;;;;;;;;;4958156;29;20503;-72
2023/05/21 08:56:16;;;;;;;15.03;11.80;;;;;;;;;;4957689;29;20972;-73
2023/05/21 08:58:45;;;;;;;9.73;8.77;;;;;;;;;;4958032;29;20451;-72
2023/05/21 09:01:12;;;;;;;11.37;9.80;;;;;;;;;;4957877;29;20497;-72
2023/05/21 09:03:39;;;;;;;11.20;10.10;;;;;;;;;;4958070;29;20539;-75
2023/05/21 09:06:08;;;;;;;11.53;10.23;;;;;;;;;;4957373;29;20428;-78
2023/05/21 09:08:38;;;;;;;10.83;9.23;;;;;;;;;;4957314;29;20467;-75
2023/05/21 09:11:04;;;;;;;10.87;8.97;;;;;;;;;;4957378;29;20416;-75
2023/05/21 09:13:31;;;;;;;11.37;10.20;;;;;;;;;;4957007;29;20420;-75
2023/05/21 09:15:59;;;;;;;10.77;9.67;;;;;;;;;;4956695;29;20425;-76
2023/05/21 09:18:28;;;;;;;11.50;10.37;;;;;;;;;;4957737;29;20431;-75
2023/05/21 09:20:55;;;;;;;15.67;10.57;;;;;;;;;;4956994;29;20889;-77
2023/05/21 09:23:21;;;;;;;11.57;9.60;;;;;;;;;;4956834;29;20464;-77
2023/05/21 09:25:48;;;;;;;11.10;9.97;;;;;;;;;;4957012;29;20405;-77
2023/05/21 09:28:15;;;;;;;11.00;10.00;;;;;;;;;;4956702;29;20464;-78
2023/05/21 09:30:47;;;;;;;10.90;9.57;;;;;;;;;;4956914;29;20885;-77
2023/05/21 09:33:24;;;;;;;11.47;10.40;;;;;;;;;;4956155;29;20420;-78
2023/05/21 09:35:50;;;;;;;11.13;10.00;;;;;;;;;;4956217;29;20905;-78
2023/05/21 09:38:16;;;;;;;11.53;10.43;;;;;;;;;;4956063;29;21292;-77
2023/05/21 09:40:44;;;;;;;12.57;11.30;;;;;;;;;;4956246;29;20779;-77
2023/05/21 09:43:13;;;;;;;11.23;10.03;;;;;;;;;;4957099;28;20409;-78
2023/05/21 09:45:49;;;;;;;13.90;10.30;;;;;;;;;;4959763;29;20475;-78
2023/05/21 09:48:15;;;;;;;11.07;9.97;;;;;;;;;;4959786;29;20892;-78
2023/05/21 09:50:41;;;;;;;11.60;10.40;;;;;;;;;;4960135;29;20534;-77
2023/05/21 09:53:12;;;;;;;11.47;10.30;;;;;;;;;;4959881;29;20443;-76
2023/05/21 09:55:40;;;;;;;11.70;10.70;;;;;;;;;;4959771;29;20407;-76
2023/05/21 09:58:06;;;;;;;15.80;10.67;;;;;;;;;;4959388;29;20455;-76
2023/05/21 10:00:32;;;;;;;12.20;11.03;;;;;;;;;;4959636;29;20424;-76
2023/05/21 10:03:00;;;;;;;12.57;11.37;;;;;;;;;;4959202;29;20416;-78
2023/05/21 10:05:30;;;;;;;13.00;10.63;;;;;;;;;;4959143;29;20423;-76
2023/05/21 10:07:59;;;;;;;11.50;10.40;;;;;;;;;;4959407;29;20413;-76
2023/05/21 10:10:27;;;;;;;12.40;10.80;;;;;;;;;;4958837;29;20460;-76
2023/05/21 10:12:58;;;;;;;12.27;11.10;;;;;;;;;;4959115;29;20429;-76
2023/05/21 10:15:24;;;;;;;12.53;11.27;;;;;;;;;;4958872;29;20409;-76
2023/05/21 10:17:52;;;;;;;11.73;10.33;;;;;;;;;;4958741;29;20417;-76
2023/05/21 10:20:18;;;;;;;11.80;10.60;;;;;;;;;;4958726;29;20491;-76
2023/05/21 10:22:45;;;;;;;13.17;11.00;;;;;;;;;;4958829;29;20424;-76
2023/05/21 10:25:12;;;;;;;11.83;10.63;;;;;;;;;;4958454;29;20470;-76
2023/05/21 10:27:38;;;;;;;11.60;10.50;;;;;;;;;;4958766;29;20416;-76
2023/05/21 10:30:06;;;;;;;12.07;10.87;;;;;;;;;;4958180;29;20413;-77
2023/05/21 10:32:32;;;;;;;12.77;11.53;;;;;;;;;;4958417;29;20409;-76
2023/05/21 10:34:58;;;;;;;12.30;11.00;;;;;;;;;;4958275;29;20485;-76
2023/05/21 10:37:26;;;;;;;12.97;11.67;;;;;;;;;;4958051;29;20456;-76
2023/05/21 10:39:55;;;;;;;13.20;11.83;;;;;;;;;;4958221;29;20432;-76
2023/05/21 10:42:27;;;;;;;12.27;10.00;;;;;;;;;;4957881;29;20409;-76
2023/05/21 10:45:12;;;;;;;11.00;9.90;;;;;;;;;;4958188;29;20464;-76
2023/05/21 10:48:02;;;;;;;11.50;10.40;;;;;;;;;;4957760;29;20920;-76
2023/05/21 10:50:37;;;;;;;10.40;9.40;;;;;;;;;;4957979;29;21034;-76
2023/05/21 10:53:03;;;;;;;12.07;10.90;;;;;;;;;;4957716;29;20807;-77
2023/05/21 10:55:36;;;;;;;13.37;12.07;;;;;;;;;;4957582;28;20467;-76
2023/05/21 10:58:14;;;;;;;11.30;10.17;;;;;;;;;;4957295;29;20419;-78
2023/05/21 11:00:41;;;;;;;12.97;11.67;;;;;;;;;;4957494;29;20819;-76
2023/05/21 11:03:07;;;;;;;14.40;11.87;;;;;;;;;;4957579;29;20512;-76
2023/05/21 11:05:54;;;;;;;13.80;11.47;;;;;;;;;;4957618;29;20976;-76
2023/05/21 11:08:25;;;;;;;11.27;10.07;;;;;;;;;;4957415;29;20496;-76
2023/05/21 11:10:52;;;;;;;12.93;11.63;;;;;;;;;;4957425;29;20412;-76
2023/05/21 11:13:21;;;;;;;12.30;11.20;;;;;;;;;;4957434;29;20767;-76
2023/05/21 11:16:00;;;;;;;10.77;9.77;;;;;;;;;;4957592;29;20448;-76
2023/05/21 11:18:38;;;;;;;13.13;10.50;;;;;;;;;;4957011;29;20941;-76
2023/05/21 11:21:11;;;;;;;12.57;11.33;;;;;;;;;;4956821;29;20829;-77
2023/05/21 11:23:52;;;;;;;12.37;11.07;;;;;;;;;;4956998;29;20467;-76
2023/05/21 11:26:20;;;;;;;13.17;11.80;;;;;;;;;;4956568;29;20417;-76
2023/05/21 11:28:46;;;;;;;12.47;11.17;;;;;;;;;;4956755;29;20452;-76
2023/05/21 11:31:33;;;;;;;11.03;10.03;;;;;;;;;;4956204;29;20775;-76
2023/05/21 11:34:28;;;;;;;13.43;12.03;;;;;;;;;;4956780;29;20777;-76
2023/05/21 11:37:12;;;;;;;13.27;11.87;;;;;;;;;;4938150;29;20435;-76
2023/05/21 11:39:39;;;;;;;13.20;12.00;;;;;;;;;;4956375;29;20393;-75
2023/05/21 11:42:05;;;;;;;14.10;12.70;;;;;;;;;;4955747;29;20781;-78
2023/05/21 11:44:47;;;;;;;13.90;12.40;;;;;;;;;;4956432;29;20472;-78
2023/05/21 11:47:14;;;;;;;15.10;12.53;;;;;;;;;;4956031;29;20409;-75
2023/05/21 11:49:40;;;;;;;14.20;12.70;;;;;;;;;;4956294;29;20511;-78
2023/05/21 11:52:07;;;;;;;13.60;12.20;;;;;;;;;;4955502;29;20468;-78
2023/05/21 11:54:37;;;;;;;13.20;12.10;;;;;;;;;;4955714;29;20419;-77
2023/05/21 11:57:07;;;;;;;12.40;11.30;;;;;;;;;;4956488;29;20464;-77
2023/05/21 11:59:33;;;;;;;11.53;10.53;;;;;;;;;;4955695;29;20900;-77
2023/05/21 12:02:00;;;;;;;13.30;12.03;;;;;;;;;;4955839;29;20404;-77
2023/05/21 12:04:30;;;;;;;12.80;11.63;;;;;;;;;;4955369;29;20526;-77
2023/05/21 12:06:57;;;;;;;14.07;12.60;;;;;;;;;;4955067;28;20413;-77
2023/05/21 12:09:23;;;;;;;12.70;11.50;;;;;;;;;;4955768;29;20413;-75
2023/05/21 12:11:52;;;;;;;13.07;11.77;;;;;;;;;;4955662;29;20451;-77
2023/05/21 12:14:18;;;;;;;13.07;11.87;;;;;;;;;;4955628;29;20916;-77
2023/05/21 12:16:44;;;;;;;13.97;12.43;;;;;;;;;;4955824;29;20773;-77
2023/05/21 12:19:10;;;;;;;15.03;13.50;;;;;;;;;;4955576;29;20424;-78
2023/05/21 12:21:37;;;;;;;11.93;10.93;;;;;;;;;;4955733;29;20413;-77
2023/05/21 12:24:03;;;;;;;12.60;11.30;;;;;;;;;;4955492;29;20880;-77
2023/05/21 12:26:32;;;;;;;13.37;11.60;;;;;;;;;;4938225;29;20464;-77
2023/05/21 12:28:58;;;;;;;13.60;12.10;;;;;;;;;;4955395;29;20417;-77
2023/05/21 12:31:26;;;;;;;13.50;12.10;;;;;;;;;;4955171;29;20781;-77
2023/05/21 12:33:52;;;;;;;13.20;12.00;;;;;;;;;;4955271;29;20412;-77
2023/05/21 12:36:22;;;;;;;14.53;11.63;;;;;;;;;;4954951;29;20483;-77
2023/05/21 12:38:50;;;;;;;14.17;12.73;;;;;;;;;;4955408;29;20420;-77
2023/05/21 12:41:16;;;;;;;12.47;11.10;;;;;;;;;;4954928;29;20932;-77
2023/05/21 12:43:42;;;;;;;14.23;12.93;;;;;;;;;;4955525;29;20482;-77
2023/05/21 12:46:13;;;;;;;13.90;12.53;;;;;;;;;;4954990;29;20413;-80
2023/05/21 12:48:40;;;;;;;15.27;13.80;;;;;;;;;;4954988;29;20432;-78
2023/05/21 12:51:06;;;;;;;11.83;10.60;;;;;;;;;;4955293;29;20464;-77
2023/05/21 12:53:38;;;;;;;13.60;12.40;;;;;;;;;;4954968;29;20436;-77
2023/05/21 12:56:11;;;;;;;14.40;11.80;;;;;;;;;;4955337;29;20412;-77
2023/05/21 12:58:39;;;;;;;11.37;10.37;;;;;;;;;;4955050;29;20780;-77
2023/05/21 13:01:09;;;;;;;15.80;12.43;;;;;;;;;;4955024;29;20421;-77
2023/05/21 13:03:35;;;;;;;12.37;10.83;;;;;;;;;;4955041;29;20468;-76
2023/05/21 13:06:02;;;;;;;11.90;10.70;;;;;;;;;;4955220;29;20496;-74
2023/05/21 13:08:28;;;;;;;11.80;10.70;;;;;;;;;;4954778;29;20416;-74
2023/05/21 13:10:54;;;;;;;14.17;11.50;;;;;;;;;;4954906;29;20401;-77
2023/05/21 13:13:20;;;;;;;10.90;10.00;;;;;;;;;;4954850;29;20416;-77
2023/05/21 13:15:46;;;;;;;10.90;9.90;;;;;;;;;;4954803;29;20806;-77
2023/05/21 13:18:13;;;;;;;12.30;11.20;;;;;;;;;;4956013;28;20416;-77
2023/05/21 13:20:39;;;;;;;14.53;12.30;;;;;;;;;;4958625;29;20435;-77
2023/05/21 13:23:05;;;;;;;11.87;10.77;;;;;;;;;;4958498;29;20409;-77
2023/05/21 13:25:31;;;;;;;11.97;10.77;;;;;;;;;;4957885;29;20519;-77
2023/05/21 13:28:01;;;;;;;12.27;11.00;;;;;;;;;;4958394;29;20488;-77
2023/05/21 13:30:27;;;;;;;13.03;11.83;;;;;;;;;;4958112;29;20451;-76
2023/05/21 13:32:53;;;;;;;12.97;11.87;;;;;;;;;;4958304;29;20412;-77
2023/05/21 13:35:19;;;;;;;12.67;11.50;;;;;;;;;;4958022;29;20428;-77
2023/05/21 13:37:45;;;;;;;11.53;10.43;;;;;;;;;;4958281;29;20781;-77
2023/05/21 13:40:15;;;;;;;12.80;11.50;;;;;;;;;;4957972;29;20532;-79
2023/05/21 13:42:42;;;;;;;11.00;10.00;;;;;;;;;;4958111;29;20788;-77
2023/05/21 13:45:10;;;;;;;12.93;11.83;;;;;;;;;;4958093;29;20560;-77
2023/05/21 13:47:36;;;;;;;13.60;12.30;;;;;;;;;;4957827;29;20421;-77
2023/05/21 13:50:02;;;;;;;13.10;11.73;;;;;;;;;;4957989;29;20789;-77
2023/05/21 13:52:28;;;;;;;12.20;11.00;;;;;;;;;;4957887;29;20451;-77
2023/05/21 13:54:54;;;;;;;15.57;12.00;;;;;;;;;;4957971;29;20433;-77
2023/05/21 13:57:20;;;;;;;12.57;11.37;;;;;;;;;;4957428;29;20417;-77
2023/05/21 13:59:46;;;;;;;14.30;12.03;;;;;;;;;;4957909;29;20416;-77
2023/05/21 14:02:12;;;;;;;12.67;11.47;;;;;;;;;;4957957;29;20843;-77
2023/05/21 14:04:38;;;;;;;12.20;10.80;;;;;;;;;;4957644;29;20472;-77
2023/05/21 14:07:05;;;;;;;12.60;11.50;;;;;;;;;;4957876;29;20416;-77
2023/05/21 14:09:31;;;;;;;12.13;10.93;;;;;;;;;;4957290;29;20405;-77
2023/05/21 14:11:57;;;;;;;11.80;10.70;;;;;;;;;;4957452;29;20404;-76
2023/05/21 14:14:23;;;;;;;12.30;11.10;;;;;;;;;;4957302;29;20544;-77
2023/05/21 14:16:50;;;;;;;11.70;10.63;;;;;;;;;;4940302;29;20419;-76
2023/05/21 14:19:16;;;;;;;12.70;11.50;;;;;;;;;;4957353;29;20459;-78